Time;durP1;ratioP1;P1;durP2;ratioP2;P2;SDS_P1;SDS_P2;PMS_P1;PMS_P2;Temp;Humidity;BMP_temperature;BMP_pressure;BME280_temperature;BME280_humidity;BME280_pressure;Samples;Min_cycle;Max_cycle;Signal;HPM_P1;HPM_P2
2021/12/22 00:01:27;;;;;;;4.03;2.70;;;23.20;34.20;;;;;;5027499;28;20045;-48
2021/12/22 00:03:53;;;;;;;4.70;3.50;;;23.10;34.20;;;;;;5002370;28;20168;-44
2021/12/22 00:06:22;;;;;;;3.80;2.47;;;23.20;34.20;;;;;;5004966;28;20032;-44
2021/12/22 00:08:48;;;;;;;4.30;2.88;;;23.10;34.20;;;;;;5004833;28;20117;-44
2021/12/22 00:11:14;;;;;;;4.07;2.80;;;23.10;34.20;;;;;;5005365;28;20109;-43
2021/12/22 00:13:40;;;;;;;4.38;2.80;;;23.10;34.30;;;;;;5005541;28;20026;-44
2021/12/22 00:16:06;;;;;;;4.53;2.70;;;23.10;34.30;;;;;;5005230;28;20099;-44
2021/12/22 00:18:33;;;;;;;4.60;2.92;;;23.00;34.20;;;;;;5004339;28;20387;-44
2021/12/22 00:20:58;;;;;;;3.97;2.40;;;23.00;34.20;;;;;;5004172;28;20113;-44
2021/12/22 00:23:24;;;;;;;4.03;2.58;;;23.10;34.30;;;;;;5004025;28;20176;-43
2021/12/22 00:25:50;;;;;;;3.80;2.60;;;23.00;34.10;;;;;;5005025;28;20026;-44
2021/12/22 00:28:16;;;;;;;3.60;2.33;;;23.00;34.20;;;;;;5004156;28;20026;-44
2021/12/22 00:30:42;;;;;;;4.25;2.63;;;23.00;34.20;;;;;;5004749;28;20549;-44
2021/12/22 00:33:10;;;;;;;4.43;2.50;;;23.00;34.20;;;;;;5004091;28;20037;-44
2021/12/22 00:35:54;;;;;;;4.25;2.70;;;23.00;34.20;;;;;;5004539;28;20038;-44
2021/12/22 00:38:21;;;;;;;4.93;2.75;;;23.00;34.20;;;;;;5004727;28;20021;-44
2021/12/22 00:40:48;;;;;;;4.18;2.50;;;23.00;34.20;;;;;;5004702;28;20475;-44
2021/12/22 00:43:16;;;;;;;4.68;2.83;;;23.00;34.20;;;;;;5004761;28;20033;-44
2021/12/22 00:45:41;;;;;;;4.15;2.72;;;23.00;34.10;;;;;;5004676;28;20030;-43
2021/12/22 00:48:10;;;;;;;3.97;2.60;;;22.90;34.20;;;;;;5004521;28;20033;-44
2021/12/22 00:50:38;;;;;;;3.78;2.28;;;22.90;34.20;;;;;;5025202;28;20112;-44
2021/12/22 00:53:05;;;;;;;4.18;2.70;;;22.90;34.20;;;;;;5043676;28;20688;-44
2021/12/22 00:55:31;;;;;;;3.35;2.22;;;22.90;34.20;;;;;;5043604;28;20044;-44
2021/12/22 00:57:57;;;;;;;4.60;2.90;;;22.90;34.20;;;;;;5043927;28;20035;-44
2021/12/22 01:00:27;;;;;;;4.40;3.00;;;22.90;34.20;;;;;;5043869;28;20033;-44
2021/12/22 01:02:53;;;;;;;4.10;2.75;;;22.90;34.20;;;;;;5002538;28;20108;-44
2021/12/22 01:05:19;;;;;;;4.22;2.50;;;22.80;34.10;;;;;;5004683;28;20052;-44
2021/12/22 01:07:48;;;;;;;3.90;2.53;;;22.80;34.10;;;;;;5007293;28;20029;-44
2021/12/22 01:10:15;;;;;;;4.07;2.78;;;22.80;34.20;;;;;;5022762;28;20017;-44
2021/12/22 01:12:41;;;;;;;3.50;2.30;;;22.80;34.10;;;;;;5024078;28;20025;-44
2021/12/22 01:15:11;;;;;;;4.20;2.65;;;22.80;34.10;;;;;;5023808;28;20440;-44
2021/12/22 01:17:42;;;;;;;4.65;3.13;;;22.80;34.10;;;;;;5006932;28;20573;-44
2021/12/22 01:20:19;;;;;;;3.85;2.60;;;22.80;34.10;;;;;;5004239;28;20556;-44
2021/12/22 01:25:13;;;;;;;3.70;2.42;;;22.80;34.10;;;;;;5003765;28;20043;-45
2021/12/22 01:27:42;;;;;;;3.67;2.40;;;22.80;34.20;;;;;;5004052;28;20188;-44
2021/12/22 01:30:21;;;;;;;4.20;2.78;;;22.70;34.10;;;;;;5004251;28;20022;-44
2021/12/22 01:32:49;;;;;;;3.70;2.50;;;22.80;34.10;;;;;;5002532;28;20034;-49
2021/12/22 01:35:18;;;;;;;4.28;2.65;;;22.70;34.20;;;;;;5003974;28;20030;-44
2021/12/22 01:37:43;;;;;;;4.03;2.80;;;22.70;34.10;;;;;;5003307;28;20033;-44
2021/12/22 01:40:10;;;;;;;3.90;2.80;;;22.70;34.10;;;;;;5003554;28;20034;-44
2021/12/22 01:42:37;;;;;;;3.88;2.40;;;22.70;34.10;;;;;;5003414;28;20034;-44
2021/12/22 01:50:50;;;;;;;4.47;2.78;;;22.60;34.10;;;;;;5022370;28;20032;-44
2021/12/22 01:53:21;;;;;;;5.03;2.60;;;22.60;34.10;;;;;;5043875;28;20028;-44
2021/12/22 01:56:10;;;;;;;3.95;2.40;;;22.60;34.10;;;;;;5043627;28;20025;-46
2021/12/22 01:58:43;;;;;;;3.88;2.30;;;22.60;34.10;;;;;;5043712;28;20053;-46
2021/12/22 02:01:10;;;;;;;4.40;2.78;;;22.60;34.10;;;;;;5034836;28;20078;-46
2021/12/22 02:03:39;;;;;;;4.05;2.30;;;22.60;34.10;;;;;;5003747;28;20044;-46
2021/12/22 02:06:06;;;;;;;4.40;2.60;;;22.60;34.70;;;;;;5004212;28;20032;-46
2021/12/22 02:08:33;;;;;;;3.75;2.33;;;22.60;34.10;;;;;;5003686;28;20033;-46
2021/12/22 02:10:59;;;;;;;3.72;2.42;;;22.60;34.10;;;;;;5004169;28;20088;-45
2021/12/22 02:13:30;;;;;;;4.65;3.22;;;22.50;34.10;;;;;;5003181;28;20045;-47
2021/12/22 02:16:06;;;;;;;4.35;2.63;;;22.50;34.10;;;;;;5003807;28;20478;-46
2021/12/22 02:18:34;;;;;;;3.17;2.22;;;22.50;34.20;;;;;;5002725;28;20034;-46
2021/12/22 02:20:59;;;;;;;3.72;2.28;;;22.50;34.10;;;;;;5002792;28;20033;-47
2021/12/22 02:23:25;;;;;;;4.40;2.70;;;22.50;34.20;;;;;;5003234;28;20069;-45
2021/12/22 02:25:56;;;;;;;3.88;2.40;;;22.50;34.10;;;;;;5005331;28;20036;-46
2021/12/22 02:28:27;;;;;;;4.28;2.80;;;22.50;34.10;;;;;;5005892;28;20030;-46
2021/12/22 02:30:53;;;;;;;3.50;2.25;;;22.50;34.10;;;;;;5006415;28;20026;-47
2021/12/22 02:33:35;;;;;;;3.42;2.15;;;22.50;34.10;;;;;;5005804;28;20041;-48
2021/12/22 02:38:40;;;;;;;3.45;2.17;;;22.50;34.20;;;;;;5006830;28;20026;-48
2021/12/22 02:41:08;;;;;;;3.55;2.22;;;22.50;34.10;;;;;;5006326;28;20045;-46
2021/12/22 02:43:42;;;;;;;3.95;2.30;;;22.40;34.10;;;;;;5006372;28;20033;-46
2021/12/22 02:46:08;;;;;;;3.72;2.45;;;22.40;34.10;;;;;;5007130;28;20072;-46
2021/12/22 02:48:34;;;;;;;3.63;2.20;;;22.40;34.10;;;;;;5006912;28;20703;-46
2021/12/22 02:51:02;;;;;;;3.70;2.22;;;22.40;34.10;;;;;;5034691;28;20029;-45
2021/12/22 02:53:45;;;;;;;3.55;2.20;;;22.40;34.10;;;;;;5045843;28;20108;-48
2021/12/22 02:56:25;;;;;;;3.95;2.47;;;22.40;34.10;;;;;;5046409;28;20033;-47
2021/12/22 03:04:18;;;;;;;3.60;2.25;;;22.40;34.10;;;;;;5005736;28;20032;-46
2021/12/22 03:07:30;;;;;;;3.72;2.35;;;22.30;34.10;;;;;;5006392;28;20030;-46
2021/12/22 03:09:35;;;;;;;3.20;2.10;;;22.30;34.10;;;;;;5016027;28;20103;-46
2021/12/22 03:12:05;;;;;;;4.13;2.53;;;22.30;34.20;;;;;;5025719;28;20029;-47
2021/12/22 03:14:31;;;;;;;3.38;2.17;;;22.30;34.20;;;;;;5025481;28;20026;-48
2021/12/22 03:16:58;;;;;;;4.03;2.30;;;22.30;34.10;;;;;;5009349;28;20050;-47
2021/12/22 03:19:34;;;;;;;3.78;2.03;;;22.30;34.20;;;;;;5004352;28;20030;-46
2021/12/22 03:22:06;;;;;;;3.67;2.35;;;22.30;34.10;;;;;;5006158;28;20034;-45
2021/12/22 03:24:34;;;;;;;3.58;2.13;;;22.30;34.20;;;;;;5006236;28;20032;-46
2021/12/22 03:27:02;;;;;;;3.10;1.73;;;22.30;34.20;;;;;;5005473;28;20645;-46
2021/12/22 03:29:29;;;;;;;3.30;1.90;;;22.30;34.10;;;;;;5006220;28;20034;-47
2021/12/22 03:31:55;;;;;;;3.70;2.20;;;22.20;34.10;;;;;;5005821;28;20037;-46
2021/12/22 03:34:21;;;;;;;3.42;1.95;;;22.20;34.10;;;;;;5005474;28;20037;-45
2021/12/22 03:36:47;;;;;;;3.65;2.20;;;22.20;34.10;;;;;;5006080;28;20717;-46
2021/12/22 03:39:14;;;;;;;3.47;1.95;;;22.20;34.10;;;;;;5005284;28;20034;-46
2021/12/22 03:41:41;;;;;;;3.38;2.05;;;22.20;34.10;;;;;;5006111;28;20093;-47
2021/12/22 03:44:07;;;;;;;3.67;1.83;;;22.20;34.10;;;;;;5005071;28;20064;-46
2021/12/22 03:46:34;;;;;;;3.40;1.98;;;22.20;34.10;;;;;;5005085;28;20030;-46
2021/12/22 03:49:00;;;;;;;4.03;2.08;;;22.20;34.10;;;;;;5005188;28;20498;-46
2021/12/22 03:51:27;;;;;;;3.15;1.73;;;22.20;34.10;;;;;;5039894;28;20112;-47
2021/12/22 03:53:54;;;;;;;3.53;2.08;;;22.20;34.10;;;;;;5043375;28;20032;-46
2021/12/22 03:56:20;;;;;;;3.90;2.08;;;22.20;34.00;;;;;;5044335;28;20086;-47
2021/12/22 03:58:46;;;;;;;3.38;2.00;;;22.20;34.10;;;;;;5044428;28;20357;-47
2021/12/22 04:01:12;;;;;;;3.45;2.00;;;22.20;34.10;;;;;;5040207;28;20029;-45
2021/12/22 04:03:39;;;;;;;4.07;2.10;;;22.20;34.10;;;;;;5004294;28;20561;-47
2021/12/22 04:06:06;;;;;;;4.05;2.28;;;22.10;34.10;;;;;;5004779;28;20034;-47
2021/12/22 04:08:32;;;;;;;3.25;1.98;;;22.10;34.20;;;;;;5004322;28;20026;-47
2021/12/22 04:10:58;;;;;;;3.92;2.30;;;22.10;34.10;;;;;;5015119;28;20249;-47
2021/12/22 04:13:24;;;;;;;3.53;1.92;;;22.10;34.30;;;;;;5024071;28;20108;-47
2021/12/22 04:15:50;;;;;;;3.30;1.90;;;22.10;34.10;;;;;;5019524;28;20112;-46
2021/12/22 04:18:16;;;;;;;3.70;2.00;;;22.10;34.10;;;;;;5005032;28;20092;-46
2021/12/22 04:20:42;;;;;;;3.45;1.88;;;22.10;34.20;;;;;;5004208;28;20030;-45
2021/12/22 04:23:09;;;;;;;3.60;2.20;;;22.10;34.20;;;;;;5005133;28;20088;-47
2021/12/22 04:25:36;;;;;;;3.28;1.90;;;22.10;34.20;;;;;;5005064;28;20030;-45
2021/12/22 04:28:08;;;;;;;3.38;1.77;;;22.00;34.10;;;;;;5005157;28;20045;-47
2021/12/22 04:30:39;;;;;;;3.72;2.17;;;22.00;34.10;;;;;;5008561;28;20502;-45
2021/12/22 04:33:05;;;;;;;3.38;1.90;;;22.00;34.00;;;;;;5018024;28;20450;-46
2021/12/22 04:35:31;;;;;;;3.92;2.10;;;22.10;34.20;;;;;;5023391;28;20040;-45
2021/12/22 04:37:57;;;;;;;3.08;1.83;;;22.00;34.00;;;;;;5023064;28;20056;-46
2021/12/22 04:40:24;;;;;;;3.35;1.73;;;22.00;34.50;;;;;;5022994;28;20060;-46
2021/12/22 04:42:50;;;;;;;3.80;2.10;;;22.00;34.90;;;;;;5022973;28;20030;-47
2021/12/22 04:45:16;;;;;;;3.60;1.90;;;22.00;35.40;;;;;;5022487;28;20485;-48
2021/12/22 04:47:43;;;;;;;3.45;1.90;;;22.00;35.50;;;;;;5023010;28;20100;-44
2021/12/22 04:50:14;;;;;;;3.65;2.28;;;22.00;35.80;;;;;;5022766;28;20092;-44
2021/12/22 04:52:49;;;;;;;2.92;2.00;;;22.00;34.80;;;;;;5020935;28;20032;-43
2021/12/22 04:55:15;;;;;;;3.65;2.15;;;22.00;34.70;;;;;;5020328;28;20037;-43
2021/12/22 04:57:41;;;;;;;7.82;3.28;;;22.00;34.70;;;;;;5021915;28;20673;-44
2021/12/22 05:00:10;;;;;;;55.38;18.92;;;22.00;35.10;;;;;;5021339;28;20125;-44
2021/12/22 05:02:36;;;;;;;40.47;17.42;;;22.00;36.20;;;;;;5008128;28;20418;-45
2021/12/22 05:05:03;;;;;;;38.80;13.65;;;22.00;36.10;;;;;;5003240;28;20036;-44
2021/12/22 05:07:29;;;;;;;29.42;11.65;;;22.00;36.10;;;;;;5002709;28;20698;-44
2021/12/22 05:09:54;;;;;;;28.30;11.65;;;22.00;36.00;;;;;;5003827;28;20029;-44
2021/12/22 05:12:20;;;;;;;24.02;10.35;;;22.00;36.00;;;;;;5017797;28;20614;-44
2021/12/22 05:14:49;;;;;;;24.42;10.80;;;22.00;35.90;;;;;;5018752;28;20036;-44
2021/12/22 05:17:24;;;;;;;20.23;9.00;;;22.00;35.70;;;;;;5002396;28;20034;-44
2021/12/22 05:19:49;;;;;;;18.77;8.00;;;22.00;35.70;;;;;;5003582;28;20036;-43
2021/12/22 05:22:15;;;;;;;15.77;7.50;;;22.00;35.50;;;;;;5002857;28;20628;-44
2021/12/22 05:24:41;;;;;;;18.00;7.85;;;22.00;35.50;;;;;;5002627;28;20037;-44
2021/12/22 05:27:08;;;;;;;17.23;6.60;;;22.00;35.40;;;;;;5004011;28;20605;-44
2021/12/22 05:29:34;;;;;;;16.25;6.72;;;22.00;35.40;;;;;;5002784;28;20026;-44
2021/12/22 05:32:03;;;;;;;11.85;5.50;;;22.00;35.40;;;;;;5004674;28;20038;-44
2021/12/22 05:34:29;;;;;;;11.48;5.57;;;22.00;35.50;;;;;;5004127;28;20063;-44
2021/12/22 05:36:55;;;;;;;15.25;6.57;;;22.00;35.30;;;;;;5004774;28;20080;-44
2021/12/22 05:39:21;;;;;;;10.25;4.63;;;22.00;35.20;;;;;;5004276;28;20030;-44
2021/12/22 05:41:46;;;;;;;8.73;4.60;;;22.10;35.20;;;;;;5004097;28;20026;-44
2021/12/22 05:44:12;;;;;;;12.18;4.80;;;22.10;35.10;;;;;;5004274;28;20038;-43
2021/12/22 05:46:38;;;;;;;12.63;5.43;;;22.10;35.00;;;;;;5004035;28;20088;-44
2021/12/22 05:49:04;;;;;;;8.10;4.18;;;22.10;35.00;;;;;;5004193;28;20084;-44
2021/12/22 05:51:32;;;;;;;9.23;4.00;;;22.20;35.00;;;;;;5040136;28;20112;-43
2021/12/22 05:53:58;;;;;;;10.13;4.45;;;22.20;35.00;;;;;;5043253;28;20036;-44
2021/12/22 05:56:26;;;;;;;7.63;4.22;;;22.20;35.00;;;;;;5043415;28;20825;-44
2021/12/22 05:58:53;;;;;;;8.20;3.42;;;22.30;35.00;;;;;;5031555;28;20045;-43
2021/12/22 06:01:19;;;;;;;9.95;4.00;;;22.40;35.00;;;;;;5023860;28;20040;-43
2021/12/22 06:03:44;;;;;;;7.40;3.65;;;22.40;35.00;;;;;;5025749;28;20116;-44
2021/12/22 06:06:11;;;;;;;7.57;4.18;;;22.50;35.10;;;;;;5024024;28;20101;-44
2021/12/22 06:08:37;;;;;;;9.35;4.25;;;22.50;35.00;;;;;;5023887;28;20116;-44
2021/12/22 06:11:03;;;;;;;7.85;3.63;;;22.60;35.20;;;;;;5025619;28;20585;-45
2021/12/22 06:13:29;;;;;;;7.20;3.53;;;22.60;35.10;;;;;;5024471;28;20053;-44
2021/12/22 06:15:55;;;;;;;8.98;3.40;;;22.70;35.00;;;;;;5024996;28;20025;-44
2021/12/22 06:18:21;;;;;;;7.57;3.78;;;22.80;34.90;;;;;;5024793;28;20057;-45
2021/12/22 06:20:47;;;;;;;8.13;3.47;;;22.90;34.90;;;;;;5026689;28;20095;-45
2021/12/22 06:23:13;;;;;;;8.50;3.42;;;22.90;34.90;;;;;;5024674;28;20029;-46
2021/12/22 06:25:38;;;;;;;7.55;3.58;;;23.10;34.90;;;;;;5026129;28;20101;-45
2021/12/22 06:28:05;;;;;;;8.38;3.53;;;23.10;34.90;;;;;;5026472;28;20112;-45
2021/12/22 06:30:31;;;;;;;6.13;2.92;;;23.20;34.70;;;;;;5026166;28;20021;-45
2021/12/22 06:32:57;;;;;;;6.15;3.30;;;23.20;34.60;;;;;;5025520;28;20412;-44
2021/12/22 06:35:22;;;;;;;6.80;3.35;;;23.30;34.60;;;;;;5026644;28;20052;-45
2021/12/22 06:37:48;;;;;;;6.40;3.50;;;23.40;34.50;;;;;;5025832;28;20029;-44
2021/12/22 06:40:15;;;;;;;5.18;2.70;;;23.40;34.40;;;;;;5026352;28;20033;-44
2021/12/22 06:42:41;;;;;;;4.75;2.30;;;23.50;34.30;;;;;;5023843;28;20022;-45
2021/12/22 06:45:13;;;;;;;4.65;2.35;;;23.50;34.40;;;;;;5024938;28;20509;-46
2021/12/22 06:47:39;;;;;;;5.25;2.72;;;23.60;34.20;;;;;;5024069;28;20017;-43
2021/12/22 06:50:06;;;;;;;5.93;2.80;;;23.70;34.20;;;;;;5024577;28;20037;-46
2021/12/22 06:52:32;;;;;;;5.03;2.58;;;23.70;34.10;;;;;;5025453;28;20022;-46
2021/12/22 06:54:57;;;;;;;6.15;3.08;;;23.80;34.10;;;;;;5025057;28;20029;-46
2021/12/22 06:57:24;;;;;;;5.72;3.35;;;23.80;33.90;;;;;;5026272;28;20029;-45
2021/12/22 06:59:49;;;;;;;4.07;2.63;;;23.90;33.90;;;;;;5024764;28;20041;-45
2021/12/22 07:02:16;;;;;;;5.65;2.75;;;24.00;33.80;;;;;;5024183;28;20026;-45
2021/12/22 07:04:42;;;;;;;5.32;2.65;;;24.00;33.70;;;;;;5023901;28;20061;-44
2021/12/22 07:07:07;;;;;;;5.53;2.33;;;24.10;33.80;;;;;;5025769;28;20107;-44
2021/12/22 07:09:33;;;;;;;5.72;2.92;;;24.10;33.30;;;;;;5024766;28;20367;-44
2021/12/22 07:11:59;;;;;;;5.47;2.83;;;24.20;33.10;;;;;;5025004;28;20028;-44
2021/12/22 07:14:25;;;;;;;4.65;2.50;;;24.30;33.00;;;;;;5023323;28;20053;-44
2021/12/22 07:16:50;;;;;;;4.65;2.60;;;24.30;32.80;;;;;;5023800;28;20033;-44
2021/12/22 07:19:16;;;;;;;6.15;3.10;;;24.30;32.60;;;;;;5024645;28;20037;-44
2021/12/22 07:21:43;;;;;;;5.35;2.50;;;24.30;32.60;;;;;;5024842;28;20674;-44
2021/12/22 07:24:09;;;;;;;5.28;3.40;;;24.40;33.00;;;;;;5023838;28;20025;-45
2021/12/22 07:26:34;;;;;;;5.93;2.80;;;24.40;32.70;;;;;;5024164;28;20026;-46
2021/12/22 07:29:00;;;;;;;5.88;2.75;;;24.50;32.60;;;;;;5025246;28;20037;-46
2021/12/22 07:31:26;;;;;;;8.07;3.55;;;24.50;32.40;;;;;;5025007;28;20037;-45
2021/12/22 07:33:58;;;;;;;5.45;2.70;;;24.60;32.20;;;;;;5024939;28;20424;-45
2021/12/22 07:36:24;;;;;;;5.13;2.78;;;24.70;32.20;;;;;;5024816;28;20041;-45
2021/12/22 07:38:58;;;;;;;6.15;3.13;;;24.70;32.00;;;;;;5025522;28;20029;-46
2021/12/22 07:41:25;;;;;;;4.85;2.85;;;24.70;31.90;;;;;;5024360;28;20108;-45
2021/12/22 07:43:51;;;;;;;5.38;3.10;;;24.70;31.90;;;;;;5025014;28;20044;-45
2021/12/22 07:46:17;;;;;;;4.57;2.50;;;24.80;31.80;;;;;;5010762;28;20049;-45
2021/12/22 07:48:43;;;;;;;5.03;3.03;;;24.80;32.50;;;;;;5005563;28;20437;-45
2021/12/22 07:51:09;;;;;;;5.60;3.28;;;24.80;31.80;;;;;;5036120;28;20017;-45
2021/12/22 07:53:34;;;;;;;3.90;2.35;;;24.90;31.80;;;;;;5044727;28;20068;-45
2021/12/22 07:56:00;;;;;;;5.82;2.95;;;24.90;32.40;;;;;;5045667;28;20509;-45
2021/12/22 07:58:26;;;;;;;4.30;2.67;;;24.90;31.80;;;;;;5045208;28;20063;-45
2021/12/22 08:00:53;;;;;;;4.88;3.05;;;25.00;31.80;;;;;;5044909;28;20036;-45
2021/12/22 08:03:19;;;;;;;5.28;3.00;;;25.00;31.70;;;;;;5013866;28;20125;-45
2021/12/22 08:05:45;;;;;;;6.18;3.30;;;25.00;31.70;;;;;;5005199;28;20105;-46
2021/12/22 08:08:11;;;;;;;5.00;2.80;;;25.00;31.70;;;;;;5005619;28;20113;-45
2021/12/22 08:10:37;;;;;;;5.28;2.88;;;25.00;31.60;;;;;;5005354;28;20026;-45
2021/12/22 08:13:03;;;;;;;4.50;2.53;;;25.10;31.60;;;;;;5004796;28;20038;-45
2021/12/22 08:15:29;;;;;;;4.85;2.65;;;25.10;31.50;;;;;;5005103;28;20038;-45
2021/12/22 08:17:55;;;;;;;5.28;2.63;;;25.10;31.50;;;;;;5005122;28;20037;-45
2021/12/22 08:20:22;;;;;;;5.20;3.03;;;25.10;31.50;;;;;;5005517;28;20041;-45
2021/12/22 08:22:48;;;;;;;4.53;2.65;;;25.10;31.40;;;;;;5002797;28;20045;-45
2021/12/22 08:25:14;;;;;;;5.03;2.58;;;25.20;31.50;;;;;;5005231;28;20026;-45
2021/12/22 08:27:40;;;;;;;4.28;2.78;;;25.20;31.40;;;;;;5005029;28;20026;-45
2021/12/22 08:30:06;;;;;;;5.35;2.65;;;25.20;31.30;;;;;;5004754;28;20050;-45
2021/12/22 08:32:33;;;;;;;3.80;2.28;;;25.20;31.40;;;;;;5004745;28;20572;-45
2021/12/22 08:34:59;;;;;;;3.72;2.08;;;25.20;31.30;;;;;;5005102;28;20029;-45
2021/12/22 08:40:14;;;;;;;4.72;2.53;;;25.20;31.20;;;;;;5004838;28;20084;-45
2021/12/22 08:42:41;;;;;;;5.38;2.88;;;25.20;31.30;;;;;;5004226;28;20030;-45
2021/12/22 08:45:08;;;;;;;5.13;2.47;;;25.20;31.20;;;;;;5004845;28;20096;-45
2021/12/22 08:47:34;;;;;;;4.38;2.72;;;25.30;31.20;;;;;;5004763;28;20037;-44
2021/12/22 08:49:59;;;;;;;3.90;2.38;;;25.30;31.20;;;;;;5015877;28;20025;-46
2021/12/22 08:52:25;;;;;;;4.32;2.35;;;25.30;31.10;;;;;;5043512;28;20043;-45
2021/12/22 08:54:51;;;;;;;4.00;2.40;;;25.30;31.20;;;;;;5043893;28;20098;-45
2021/12/22 08:57:17;;;;;;;4.43;2.78;;;25.30;31.10;;;;;;5044414;28;20025;-45
2021/12/22 08:59:42;;;;;;;4.50;2.60;;;25.30;31.10;;;;;;5044023;28;20033;-45
2021/12/22 09:02:08;;;;;;;4.30;2.70;;;25.30;31.10;;;;;;5034438;28;20058;-45
2021/12/22 09:04:34;;;;;;;4.85;2.83;;;25.30;31.10;;;;;;5003985;28;20394;-46
2021/12/22 09:07:00;;;;;;;4.80;2.83;;;25.30;31.20;;;;;;5004462;28;20056;-46
2021/12/22 09:09:26;;;;;;;5.30;2.72;;;25.30;31.10;;;;;;5023814;28;20402;-44
2021/12/22 09:11:52;;;;;;;4.82;2.50;;;25.30;31.10;;;;;;5024056;28;20091;-45
2021/12/22 09:14:19;;;;;;;4.78;2.13;;;25.30;31.10;;;;;;5024031;28;20029;-45
2021/12/22 09:16:45;;;;;;;4.70;2.42;;;25.40;31.00;;;;;;5005150;28;20445;-45
2021/12/22 09:19:10;;;;;;;4.03;2.10;;;25.40;31.00;;;;;;5004085;28;20026;-46
2021/12/22 09:21:37;;;;;;;4.10;2.30;;;25.30;31.10;;;;;;5004379;28;20034;-45
2021/12/22 09:24:03;;;;;;;4.25;2.50;;;25.40;31.00;;;;;;5004058;28;20038;-45
2021/12/22 09:26:29;;;;;;;4.18;2.40;;;25.40;31.10;;;;;;5004035;28;20030;-45
2021/12/22 09:28:56;;;;;;;4.65;2.60;;;25.40;31.00;;;;;;5004396;28;20522;-45
2021/12/22 09:31:23;;;;;;;3.97;2.47;;;25.40;31.00;;;;;;5004461;28;20160;-45
2021/12/22 09:33:50;;;;;;;3.47;2.30;;;25.40;31.00;;;;;;5018752;28;20030;-45
2021/12/22 09:36:16;;;;;;;3.33;2.03;;;25.40;31.00;;;;;;5008478;28;20060;-45
2021/12/22 09:38:42;;;;;;;3.88;2.53;;;25.40;31.00;;;;;;5007919;28;20176;-45
2021/12/22 09:41:09;;;;;;;3.80;2.20;;;25.40;31.00;;;;;;5008006;28;20171;-45
2021/12/22 09:43:35;;;;;;;5.25;2.15;;;25.40;31.10;;;;;;5007377;28;20087;-46
2021/12/22 09:46:06;;;;;;;4.40;2.20;;;25.40;31.10;;;;;;5008208;28;20510;-45
2021/12/22 09:53:44;;;;;;;3.92;2.22;;;25.40;31.00;;;;;;5047354;28;20021;-45
2021/12/22 09:56:11;;;;;;;3.92;1.90;;;25.40;31.10;;;;;;5047702;28;20021;-46
2021/12/22 09:58:40;;;;;;;3.30;2.13;;;25.40;31.20;;;;;;5047609;28;20021;-45
2021/12/22 10:01:05;;;;;;;3.38;2.05;;;25.40;31.00;;;;;;5047367;28;20432;-44
2021/12/22 10:03:31;;;;;;;3.60;2.20;;;25.40;31.20;;;;;;5016492;28;20026;-45
2021/12/22 10:05:57;;;;;;;3.63;2.25;;;25.40;31.00;;;;;;5007618;28;20050;-45
2021/12/22 10:08:25;;;;;;;3.70;2.13;;;25.40;31.10;;;;;;5027207;28;20021;-45
2021/12/22 10:11:06;;;;;;;3.88;2.15;;;25.40;31.10;;;;;;5027006;28;20425;-45
2021/12/22 10:13:33;;;;;;;3.70;2.10;;;25.40;31.00;;;;;;5027021;28;20029;-46
2021/12/22 10:16:08;;;;;;;3.53;2.00;;;25.40;31.10;;;;;;5014282;28;20030;-45
2021/12/22 10:18:34;;;;;;;3.78;2.05;;;25.40;31.70;;;;;;5006982;28;20445;-45
2021/12/22 10:21:10;;;;;;;3.75;2.10;;;25.40;31.10;;;;;;5007255;28;20537;-45
2021/12/22 10:23:37;;;;;;;3.47;2.22;;;25.40;31.20;;;;;;5007274;28;20030;-45
2021/12/22 10:26:07;;;;;;;3.88;2.00;;;25.40;31.00;;;;;;5007774;28;20485;-45
2021/12/22 10:28:59;;;;;;;3.35;2.03;;;25.40;31.10;;;;;;5007118;28;20441;-45
2021/12/22 10:31:45;;;;;;;3.37;1.87;;;25.40;31.00;;;;;;5006114;28;20088;-45
2021/12/22 10:34:16;;;;;;;3.67;2.03;;;25.40;31.20;;;;;;5006960;28;20057;-45
2021/12/22 10:36:52;;;;;;;3.08;1.83;;;25.40;31.10;;;;;;5007349;28;20030;-45
2021/12/22 10:39:22;;;;;;;3.75;1.88;;;25.40;31.10;;;;;;5006876;28;20033;-46
2021/12/22 10:41:49;;;;;;;3.42;1.92;;;25.40;31.00;;;;;;5007119;28;20034;-46
2021/12/22 10:44:15;;;;;;;3.78;2.33;;;25.40;31.10;;;;;;5006297;28;20029;-45
2021/12/22 10:46:41;;;;;;;3.35;1.90;;;25.40;31.10;;;;;;5006148;28;20037;-45
2021/12/22 10:49:20;;;;;;;3.50;2.03;;;25.40;31.10;;;;;;5006533;28;20026;-45
2021/12/22 10:52:03;;;;;;;3.15;1.85;;;25.50;31.20;;;;;;5006810;28;20513;-45
2021/12/22 10:54:34;;;;;;;3.53;2.10;;;25.50;31.10;;;;;;5006556;28;20037;-45
2021/12/22 10:57:02;;;;;;;2.85;1.85;;;25.50;31.10;;;;;;5006917;28;20026;-46
2021/12/22 10:59:39;;;;;;;3.10;1.80;;;25.40;31.10;;;;;;5006801;28;20014;-45
2021/12/22 11:02:10;;;;;;;2.90;1.88;;;25.50;31.10;;;;;;5006592;28;20030;-46
2021/12/22 11:04:43;;;;;;;3.92;2.00;;;25.50;31.10;;;;;;5006508;28;20140;-45
2021/12/22 11:07:20;;;;;;;3.65;2.25;;;25.50;31.10;;;;;;5011158;28;20024;-45
2021/12/22 11:09:46;;;;;;;3.63;1.73;;;25.50;31.10;;;;;;5026392;28;20037;-45
2021/12/22 11:12:14;;;;;;;3.05;1.75;;;25.50;31.10;;;;;;5025552;28;20029;-46
2021/12/22 11:14:41;;;;;;;3.25;1.92;;;25.50;31.10;;;;;;5023131;28;20079;-45
2021/12/22 11:17:09;;;;;;;3.38;2.10;;;25.50;31.00;;;;;;5006312;28;20168;-45
2021/12/22 11:19:53;;;;;;;3.33;1.90;;;25.50;31.00;;;;;;5006183;28;20398;-45
2021/12/22 11:22:25;;;;;;;3.40;1.95;;;25.50;31.10;;;;;;5005803;28;20034;-45
2021/12/22 11:24:53;;;;;;;2.75;1.65;;;25.50;31.10;;;;;;5006446;28;20025;-45
2021/12/22 11:27:24;;;;;;;3.15;2.00;;;25.50;31.10;;;;;;5006291;28;20072;-45
2021/12/22 11:29:54;;;;;;;4.95;2.30;;;25.50;31.00;;;;;;5006012;28;20025;-45
2021/12/22 11:32:23;;;;;;;3.58;2.17;;;25.50;30.90;;;;;;5005635;28;20128;-45
2021/12/22 11:34:54;;;;;;;3.17;2.00;;;25.50;31.10;;;;;;5006366;28;20041;-45
2021/12/22 11:37:22;;;;;;;4.65;2.28;;;25.50;31.00;;;;;;5005815;28;20560;-45
2021/12/22 11:39:49;;;;;;;3.58;2.00;;;25.50;31.00;;;;;;5004478;28;20034;-45
2021/12/22 11:42:15;;;;;;;3.72;2.35;;;25.50;31.00;;;;;;5005818;28;20037;-45
2021/12/22 11:44:47;;;;;;;4.78;2.55;;;25.50;30.90;;;;;;5005681;28;20034;-45
2021/12/22 11:47:18;;;;;;;3.55;2.20;;;25.50;31.00;;;;;;5005725;28;20026;-45
2021/12/22 11:49:56;;;;;;;4.22;2.50;;;25.50;30.90;;;;;;5012490;28;20044;-47
2021/12/22 11:52:36;;;;;;;4.20;2.60;;;25.50;31.00;;;;;;5045505;28;20060;-45
2021/12/22 11:55:18;;;;;;;4.93;2.53;;;25.50;31.00;;;;;;5045614;28;20044;-45
2021/12/22 11:57:46;;;;;;;4.10;2.30;;;25.50;31.00;;;;;;5046024;28;20033;-45
2021/12/22 12:00:26;;;;;;;5.80;2.55;;;25.50;31.00;;;;;;5045539;28;20029;-45
2021/12/22 12:02:53;;;;;;;5.70;3.08;;;25.50;31.10;;;;;;5029676;28;20387;-45
2021/12/22 12:05:30;;;;;;;7.10;2.92;;;25.50;31.00;;;;;;5006259;28;20030;-45
2021/12/22 12:07:59;;;;;;;5.95;2.72;;;25.50;31.10;;;;;;5009277;28;20105;-45
2021/12/22 12:10:43;;;;;;;4.90;2.72;;;25.50;31.00;;;;;;5025277;28;20052;-45
2021/12/22 12:13:44;;;;;;;5.95;3.20;;;25.50;31.00;;;;;;5025065;28;20096;-45
2021/12/22 12:22:36;;;;;;;8.02;2.95;;;25.50;31.00;;;;;;5005024;28;20068;-45
2021/12/22 12:25:09;;;;;;;6.40;3.13;;;25.50;30.90;;;;;;5005376;28;20034;-45
2021/12/22 12:27:36;;;;;;;4.30;2.50;;;25.50;30.90;;;;;;5005024;28;20076;-44
2021/12/22 12:30:06;;;;;;;4.70;2.55;;;25.50;30.90;;;;;;5005038;28;20438;-45
2021/12/22 12:32:41;;;;;;;3.92;2.50;;;25.50;30.90;;;;;;5004115;28;20682;-45
2021/12/22 12:38:07;;;;;;;5.70;3.00;;;25.50;30.90;;;;;;5005043;28;20026;-45
2021/12/22 12:40:55;;;;;;;5.80;3.10;;;25.50;30.90;;;;;;5005426;28;20184;-45
2021/12/22 12:43:45;;;;;;;4.40;2.70;;;25.60;30.90;;;;;;5004577;28;20080;-45
2021/12/22 12:49:14;;;;;;;5.55;2.95;;;25.50;30.70;;;;;;5004146;28;20037;-46
2021/12/22 12:51:42;;;;;;;6.25;3.00;;;25.50;30.70;;;;;;5043270;28;20104;-45
2021/12/22 12:54:17;;;;;;;5.80;2.88;;;25.50;30.70;;;;;;5044023;28;20033;-46
2021/12/22 12:56:48;;;;;;;5.80;3.58;;;25.50;30.70;;;;;;5042992;28;20037;-45
2021/12/22 12:59:17;;;;;;;4.50;2.85;;;25.50;30.70;;;;;;5043043;28;20079;-45
2021/12/22 13:01:51;;;;;;;5.40;2.90;;;25.50;30.70;;;;;;5044337;28;20520;-45
2021/12/22 13:04:27;;;;;;;6.15;2.63;;;25.60;30.70;;;;;;4992254;28;20528;-45
2021/12/22 13:07:15;;;;;;;5.47;3.00;;;25.60;30.70;;;;;;5004037;28;20018;-45
2021/12/22 13:09:49;;;;;;;4.97;2.53;;;25.60;30.70;;;;;;5007264;28;20029;-45
2021/12/22 13:17:48;;;;;;;4.60;3.00;;;25.60;30.70;;;;;;5003776;28;20084;-46
2021/12/22 13:20:19;;;;;;;4.65;2.90;;;25.50;30.70;;;;;;5004549;28;20026;-45
2021/12/22 13:22:47;;;;;;;5.43;3.15;;;25.50;30.60;;;;;;5003708;28;20501;-46
2021/12/22 13:25:28;;;;;;;5.15;3.00;;;25.60;30.60;;;;;;5004589;28;20030;-45
2021/12/22 13:28:05;;;;;;;4.75;3.10;;;25.50;30.60;;;;;;5003869;28;20116;-45
2021/12/22 13:30:45;;;;;;;4.65;2.83;;;25.50;30.70;;;;;;5004102;28;20034;-45
2021/12/22 13:33:38;;;;;;;5.07;2.80;;;25.50;30.50;;;;;;5002315;28;20083;-45
2021/12/22 13:36:14;;;;;;;4.82;2.90;;;25.50;30.70;;;;;;5002868;28;20030;-45